sensor_id;sensor_type;location;lat;lon;timestamp;temperature;humidity
74155;DHT22;62509;46.248;6.018;2024-02-21T00:04:22;6.80;93.80
74155;DHT22;62509;46.248;6.018;2024-02-21T00:09:25;6.80;93.70
74155;DHT22;62509;46.248;6.018;2024-02-21T00:14:29;6.80;93.50
74155;DHT22;62509;46.248;6.018;2024-02-21T00:19:33;6.80;93.60
74155;DHT22;62509;46.248;6.018;2024-02-21T00:24:37;6.80;93.60
74155;DHT22;62509;46.248;6.018;2024-02-21T00:29:40;6.80;93.80
74155;DHT22;62509;46.248;6.018;2024-02-21T00:34:44;6.80;93.60
74155;DHT22;62509;46.248;6.018;2024-02-21T00:39:48;6.80;93.60
74155;DHT22;62509;46.248;6.018;2024-02-21T00:44:51;6.80;93.60
74155;DHT22;62509;46.248;6.018;2024-02-21T00:49:56;6.80;93.70
74155;DHT22;62509;46.248;6.018;2024-02-21T00:54:59;6.80;93.70
74155;DHT22;62509;46.248;6.018;2024-02-21T01:00:02;6.80;93.60
74155;DHT22;62509;46.248;6.018;2024-02-21T01:05:08;6.80;93.60
74155;DHT22;62509;46.248;6.018;2024-02-21T01:10:11;6.70;93.30
74155;DHT22;62509;46.248;6.018;2024-02-21T01:15:15;6.60;93.30
74155;DHT22;62509;46.248;6.018;2024-02-21T01:20:19;6.60;93.50
74155;DHT22;62509;46.248;6.018;2024-02-21T01:25:23;6.70;93.60
74155;DHT22;62509;46.248;6.018;2024-02-21T01:30:26;6.70;93.50
74155;DHT22;62509;46.248;6.018;2024-02-21T01:35:31;6.70;93.30
74155;DHT22;62509;46.248;6.018;2024-02-21T01:40:34;6.60;93.30
74155;DHT22;62509;46.248;6.018;2024-02-21T01:45:39;6.60;93.40
74155;DHT22;62509;46.248;6.018;2024-02-21T01:50:43;6.60;93.30
74155;DHT22;62509;46.248;6.018;2024-02-21T01:55:47;6.60;93.30
74155;DHT22;62509;46.248;6.018;2024-02-21T02:00:50;6.60;93.30
74155;DHT22;62509;46.248;6.018;2024-02-21T02:05:55;6.50;93.20
74155;DHT22;62509;46.248;6.018;2024-02-21T02:10:59;6.40;93.30
74155;DHT22;62509;46.248;6.018;2024-02-21T02:16:02;6.30;93.30
74155;DHT22;62509;46.248;6.018;2024-02-21T02:21:10;6.30;93.50
74155;DHT22;62509;46.248;6.018;2024-02-21T02:26:17;6.20;93.70
74155;DHT22;62509;46.248;6.018;2024-02-21T02:31:20;6.30;93.60
74155;DHT22;62509;46.248;6.018;2024-02-21T02:36:24;6.40;93.50
74155;DHT22;62509;46.248;6.018;2024-02-21T02:41:28;6.40;93.40
74155;DHT22;62509;46.248;6.018;2024-02-21T02:46:31;6.40;93.30
74155;DHT22;62509;46.248;6.018;2024-02-21T02:51:35;6.40;93.50
74155;DHT22;62509;46.248;6.018;2024-02-21T02:56:40;6.40;93.60
74155;DHT22;62509;46.248;6.018;2024-02-21T03:01:44;6.40;93.50
74155;DHT22;62509;46.248;6.018;2024-02-21T03:06:47;6.40;93.40
74155;DHT22;62509;46.248;6.018;2024-02-21T03:11:54;6.40;93.50
74155;DHT22;62509;46.248;6.018;2024-02-21T03:17:04;6.40;93.40
74155;DHT22;62509;46.248;6.018;2024-02-21T03:22:07;6.40;93.40
74155;DHT22;62509;46.248;6.018;2024-02-21T03:27:12;6.40;93.40
74155;DHT22;62509;46.248;6.018;2024-02-21T03:32:15;6.40;93.50
74155;DHT22;62509;46.248;6.018;2024-02-21T03:37:18;6.30;93.50
74155;DHT22;62509;46.248;6.018;2024-02-21T03:42:23;6.30;93.50
74155;DHT22;62509;46.248;6.018;2024-02-21T03:47:26;6.30;93.50
74155;DHT22;62509;46.248;6.018;2024-02-21T03:52:30;6.30;93.50
74155;DHT22;62509;46.248;6.018;2024-02-21T03:57:35;6.20;93.30
74155;DHT22;62509;46.248;6.018;2024-02-21T04:02:38;6.20;93.50
74155;DHT22;62509;46.248;6.018;2024-02-21T04:07:41;6.20;93.50
74155;DHT22;62509;46.248;6.018;2024-02-21T04:12:46;6.20;93.20
74155;DHT22;62509;46.248;6.018;2024-02-21T04:17:52;6.00;93.20
74155;DHT22;62509;46.248;6.018;2024-02-21T04:22:55;5.90;93.20
74155;DHT22;62509;46.248;6.018;2024-02-21T04:28:00;5.90;93.50
74155;DHT22;62509;46.248;6.018;2024-02-21T04:33:03;5.90;93.50
74155;DHT22;62509;46.248;6.018;2024-02-21T04:38:06;5.90;93.40
74155;DHT22;62509;46.248;6.018;2024-02-21T04:43:11;5.80;93.40
74155;DHT22;62509;46.248;6.018;2024-02-21T04:48:14;5.90;93.40
74155;DHT22;62509;46.248;6.018;2024-02-21T04:53:17;5.80;93.20
74155;DHT22;62509;46.248;6.018;2024-02-21T04:58:23;5.80;93.20
74155;DHT22;62509;46.248;6.018;2024-02-21T05:03:27;5.80;93.20
74155;DHT22;62509;46.248;6.018;2024-02-21T05:08:30;5.80;93.30
74155;DHT22;62509;46.248;6.018;2024-02-21T05:13:34;5.90;93.40
74155;DHT22;62509;46.248;6.018;2024-02-21T05:18:38;5.90;93.60
74155;DHT22;62509;46.248;6.018;2024-02-21T05:23:41;6.00;93.40
74155;DHT22;62509;46.248;6.018;2024-02-21T05:28:46;5.90;93.20
74155;DHT22;62509;46.248;6.018;2024-02-21T05:33:49;5.80;93.30
74155;DHT22;62509;46.248;6.018;2024-02-21T05:38:52;5.80;93.20
74155;DHT22;62509;46.248;6.018;2024-02-21T05:43:57;5.70;93.30
74155;DHT22;62509;46.248;6.018;2024-02-21T05:49:01;5.70;93.50
74155;DHT22;62509;46.248;6.018;2024-02-21T05:54:05;5.70;93.50
74155;DHT22;62509;46.248;6.018;2024-02-21T05:59:10;5.70;93.40
74155;DHT22;62509;46.248;6.018;2024-02-21T06:04:14;5.70;93.50
74155;DHT22;62509;46.248;6.018;2024-02-21T06:09:17;5.80;93.50
74155;DHT22;62509;46.248;6.018;2024-02-21T06:14:22;5.90;93.50
74155;DHT22;62509;46.248;6.018;2024-02-21T06:19:25;5.90;93.50
74155;DHT22;62509;46.248;6.018;2024-02-21T06:24:28;6.00;93.50
74155;DHT22;62509;46.248;6.018;2024-02-21T06:29:33;6.00;93.50
74155;DHT22;62509;46.248;6.018;2024-02-21T06:34:37;6.00;93.50
74155;DHT22;62509;46.248;6.018;2024-02-21T06:39:40;6.00;93.50
74155;DHT22;62509;46.248;6.018;2024-02-21T06:44:45;6.10;93.40
74155;DHT22;62509;46.248;6.018;2024-02-21T06:49:49;6.00;93.30
74155;DHT22;62509;46.248;6.018;2024-02-21T06:54:53;6.10;93.40
74155;DHT22;62509;46.248;6.018;2024-02-21T06:59:58;6.10;93.50
74155;DHT22;62509;46.248;6.018;2024-02-21T07:05:02;6.20;93.40
74155;DHT22;62509;46.248;6.018;2024-02-21T07:10:06;6.20;93.40
74155;DHT22;62509;46.248;6.018;2024-02-21T07:15:11;6.30;93.40
74155;DHT22;62509;46.248;6.018;2024-02-21T07:20:14;6.30;93.40
74155;DHT22;62509;46.248;6.018;2024-02-21T07:25:18;6.40;93.40
74155;DHT22;62509;46.248;6.018;2024-02-21T07:30:22;6.50;93.30
74155;DHT22;62509;46.248;6.018;2024-02-21T07:35:26;6.50;93.50
74155;DHT22;62509;46.248;6.018;2024-02-21T07:40:29;6.60;93.40
74155;DHT22;62509;46.248;6.018;2024-02-21T07:45:34;6.80;93.50
74155;DHT22;62509;46.248;6.018;2024-02-21T07:50:37;6.80;93.50
74155;DHT22;62509;46.248;6.018;2024-02-21T07:55:43;6.90;93.50
74155;DHT22;62509;46.248;6.018;2024-02-21T08:00:48;7.00;93.50
74155;DHT22;62509;46.248;6.018;2024-02-21T08:05:51;7.10;93.40
74155;DHT22;62509;46.248;6.018;2024-02-21T08:10:54;7.20;93.40
74155;DHT22;62509;46.248;6.018;2024-02-21T08:15:59;7.30;93.40
74155;DHT22;62509;46.248;6.018;2024-02-21T08:21:03;7.40;93.40
74155;DHT22;62509;46.248;6.018;2024-02-21T08:26:06;7.50;93.30
74155;DHT22;62509;46.248;6.018;2024-02-21T08:31:11;7.70;93.30
74155;DHT22;62509;46.248;6.018;2024-02-21T08:36:21;7.90;93.30
74155;DHT22;62509;46.248;6.018;2024-02-21T08:41:24;8.00;93.30
74155;DHT22;62509;46.248;6.018;2024-02-21T08:46:49;8.20;93.40
74155;DHT22;62509;46.248;6.018;2024-02-21T08:51:52;8.30;93.30
74155;DHT22;62509;46.248;6.018;2024-02-21T08:56:56;8.50;93.10
74155;DHT22;62509;46.248;6.018;2024-02-21T09:02:00;8.50;93.10
74155;DHT22;62509;46.248;6.018;2024-02-21T09:07:05;8.70;93.20
74155;DHT22;62509;46.248;6.018;2024-02-21T09:12:08;8.80;93.20
74155;DHT22;62509;46.248;6.018;2024-02-21T09:17:13;8.90;93.10
74155;DHT22;62509;46.248;6.018;2024-02-21T09:22:18;9.10;93.20
74155;DHT22;62509;46.248;6.018;2024-02-21T09:27:22;9.20;93.10
74155;DHT22;62509;46.248;6.018;2024-02-21T09:32:26;9.30;93.10
74155;DHT22;62509;46.248;6.018;2024-02-21T09:37:30;9.50;93.10
74155;DHT22;62509;46.248;6.018;2024-02-21T09:42:36;9.60;92.90
74155;DHT22;62509;46.248;6.018;2024-02-21T09:47:44;9.80;93.00
74155;DHT22;62509;46.248;6.018;2024-02-21T09:52:53;9.90;92.90
74155;DHT22;62509;46.248;6.018;2024-02-21T09:57:57;10.00;92.80
74155;DHT22;62509;46.248;6.018;2024-02-21T10:03:03;10.10;92.80
74155;DHT22;62509;46.248;6.018;2024-02-21T10:08:13;10.30;92.80
74155;DHT22;62509;46.248;6.018;2024-02-21T10:13:23;10.40;92.80
74155;DHT22;62509;46.248;6.018;2024-02-21T10:18:29;10.60;92.70
74155;DHT22;62509;46.248;6.018;2024-02-21T10:23:42;10.70;92.70
74155;DHT22;62509;46.248;6.018;2024-02-21T10:28:46;10.90;92.70
74155;DHT22;62509;46.248;6.018;2024-02-21T10:33:55;11.00;92.60
74155;DHT22;62509;46.248;6.018;2024-02-21T10:39:00;11.20;92.40
74155;DHT22;62509;46.248;6.018;2024-02-21T10:44:04;11.30;92.40
74155;DHT22;62509;46.248;6.018;2024-02-21T10:49:10;11.40;92.40
74155;DHT22;62509;46.248;6.018;2024-02-21T10:54:23;11.60;92.40
74155;DHT22;62509;46.248;6.018;2024-02-21T10:59:32;11.70;92.40
74155;DHT22;62509;46.248;6.018;2024-02-21T11:04:36;11.80;92.20
74155;DHT22;62509;46.248;6.018;2024-02-21T11:09:40;11.90;92.10
74155;DHT22;62509;46.248;6.018;2024-02-21T11:14:54;12.00;92.20
74155;DHT22;62509;46.248;6.018;2024-02-21T11:20:12;12.10;92.10
74155;DHT22;62509;46.248;6.018;2024-02-21T11:25:21;12.20;92.10
74155;DHT22;62509;46.248;6.018;2024-02-21T11:30:26;12.20;92.10
74155;DHT22;62509;46.248;6.018;2024-02-21T11:35:34;12.40;92.10
74155;DHT22;62509;46.248;6.018;2024-02-21T11:40:38;12.50;91.90
74155;DHT22;62509;46.248;6.018;2024-02-21T11:45:43;12.50;91.90
74155;DHT22;62509;46.248;6.018;2024-02-21T11:50:53;12.60;91.80
74155;DHT22;62509;46.248;6.018;2024-02-21T11:55:57;12.70;91.80
74155;DHT22;62509;46.248;6.018;2024-02-21T12:01:01;12.70;91.80
74155;DHT22;62509;46.248;6.018;2024-02-21T12:06:07;12.90;91.80
74155;DHT22;62509;46.248;6.018;2024-02-21T12:11:18;13.10;91.80
74155;DHT22;62509;46.248;6.018;2024-02-21T12:16:22;13.20;91.70
74155;DHT22;62509;46.248;6.018;2024-02-21T12:21:29;13.30;91.60
74155;DHT22;62509;46.248;6.018;2024-02-21T12:26:34;13.40;91.50
74155;DHT22;62509;46.248;6.018;2024-02-21T12:31:38;13.50;91.40
74155;DHT22;62509;46.248;6.018;2024-02-21T12:36:43;13.60;91.50
74155;DHT22;62509;46.248;6.018;2024-02-21T12:41:49;13.70;91.40
74155;DHT22;62509;46.248;6.018;2024-02-21T12:46:52;13.80;91.30
74155;DHT22;62509;46.248;6.018;2024-02-21T12:51:58;13.90;91.30
74155;DHT22;62509;46.248;6.018;2024-02-21T12:57:01;14.00;91.20
74155;DHT22;62509;46.248;6.018;2024-02-21T13:02:05;14.00;91.10
74155;DHT22;62509;46.248;6.018;2024-02-21T13:07:11;14.10;91.10
74155;DHT22;62509;46.248;6.018;2024-02-21T13:12:15;14.10;91.10
74155;DHT22;62509;46.248;6.018;2024-02-21T13:17:18;14.20;91.10
74155;DHT22;62509;46.248;6.018;2024-02-21T13:22:25;14.20;91.00
74155;DHT22;62509;46.248;6.018;2024-02-21T13:27:28;14.20;91.00
74155;DHT22;62509;46.248;6.018;2024-02-21T13:32:31;14.20;91.00
74155;DHT22;62509;46.248;6.018;2024-02-21T13:37:36;14.20;90.90
74155;DHT22;62509;46.248;6.018;2024-02-21T13:42:40;14.20;91.00
74155;DHT22;62509;46.248;6.018;2024-02-21T13:47:43;14.20;90.90
74155;DHT22;62509;46.248;6.018;2024-02-21T13:52:47;14.20;90.90
74155;DHT22;62509;46.248;6.018;2024-02-21T13:57:51;14.20;90.90
74155;DHT22;62509;46.248;6.018;2024-02-21T14:02:54;14.30;90.90
74155;DHT22;62509;46.248;6.018;2024-02-21T14:08:01;14.20;90.80
74155;DHT22;62509;46.248;6.018;2024-02-21T14:13:04;14.30;90.80
74155;DHT22;62509;46.248;6.018;2024-02-21T14:18:07;14.30;90.80
74155;DHT22;62509;46.248;6.018;2024-02-21T14:23:13;14.30;90.80
74155;DHT22;62509;46.248;6.018;2024-02-21T14:28:16;14.30;90.80
74155;DHT22;62509;46.248;6.018;2024-02-21T14:33:22;14.40;90.70
74155;DHT22;62509;46.248;6.018;2024-02-21T14:38:28;14.30;90.70
74155;DHT22;62509;46.248;6.018;2024-02-21T14:43:31;14.30;90.70
74155;DHT22;62509;46.248;6.018;2024-02-21T14:48:36;14.30;90.70
74155;DHT22;62509;46.248;6.018;2024-02-21T14:53:41;14.20;90.60
74155;DHT22;62509;46.248;6.018;2024-02-21T14:58:44;14.20;90.70
74155;DHT22;62509;46.248;6.018;2024-02-21T15:03:51;14.20;90.70
74155;DHT22;62509;46.248;6.018;2024-02-21T15:08:56;14.20;90.70
74155;DHT22;62509;46.248;6.018;2024-02-21T15:13:59;14.20;90.60
74155;DHT22;62509;46.248;6.018;2024-02-21T15:19:03;14.10;90.60
74155;DHT22;62509;46.248;6.018;2024-02-21T15:24:08;14.10;90.60
74155;DHT22;62509;46.248;6.018;2024-02-21T15:29:11;14.10;90.60
74155;DHT22;62509;46.248;6.018;2024-02-21T15:34:14;14.00;90.50
74155;DHT22;62509;46.248;6.018;2024-02-21T15:39:20;14.00;90.60
74155;DHT22;62509;46.248;6.018;2024-02-21T15:44:23;13.90;90.50
74155;DHT22;62509;46.248;6.018;2024-02-21T15:49:27;13.90;90.50
74155;DHT22;62509;46.248;6.018;2024-02-21T15:54:31;13.90;90.50
74155;DHT22;62509;46.248;6.018;2024-02-21T15:59:35;13.80;90.50
74155;DHT22;62509;46.248;6.018;2024-02-21T16:04:40;13.70;90.50
74155;DHT22;62509;46.248;6.018;2024-02-21T16:09:45;13.70;90.50
74155;DHT22;62509;46.248;6.018;2024-02-21T16:14:49;13.60;90.50
74155;DHT22;62509;46.248;6.018;2024-02-21T16:19:52;13.50;90.50
74155;DHT22;62509;46.248;6.018;2024-02-21T16:24:57;13.50;90.60
74155;DHT22;62509;46.248;6.018;2024-02-21T16:30:00;13.50;90.60
74155;DHT22;62509;46.248;6.018;2024-02-21T16:35:06;13.40;90.50
74155;DHT22;62509;46.248;6.018;2024-02-21T16:40:12;13.40;90.50
74155;DHT22;62509;46.248;6.018;2024-02-21T16:45:15;13.30;90.50
74155;DHT22;62509;46.248;6.018;2024-02-21T16:50:18;13.20;90.50
74155;DHT22;62509;46.248;6.018;2024-02-21T16:55:23;13.20;90.50
74155;DHT22;62509;46.248;6.018;2024-02-21T17:00:27;13.10;90.50
74155;DHT22;62509;46.248;6.018;2024-02-21T17:05:30;13.10;90.50
74155;DHT22;62509;46.248;6.018;2024-02-21T17:10:35;13.10;90.50
74155;DHT22;62509;46.248;6.018;2024-02-21T17:15:41;13.10;90.50
74155;DHT22;62509;46.248;6.018;2024-02-21T17:20:45;13.00;90.50
74155;DHT22;62509;46.248;6.018;2024-02-21T17:25:51;12.90;90.50
74155;DHT22;62509;46.248;6.018;2024-02-21T17:30:54;12.90;90.50
74155;DHT22;62509;46.248;6.018;2024-02-21T17:35:58;12.90;90.60
74155;DHT22;62509;46.248;6.018;2024-02-21T17:41:02;12.90;90.60
74155;DHT22;62509;46.248;6.018;2024-02-21T17:46:06;12.80;90.50
74155;DHT22;62509;46.248;6.018;2024-02-21T17:51:09;12.80;90.50
74155;DHT22;62509;46.248;6.018;2024-02-21T17:56:14;12.80;90.50
74155;DHT22;62509;46.248;6.018;2024-02-21T18:01:17;12.80;90.50
74155;DHT22;62509;46.248;6.018;2024-02-21T18:06:21;12.80;90.50
74155;DHT22;62509;46.248;6.018;2024-02-21T18:11:25;12.70;90.50
74155;DHT22;62509;46.248;6.018;2024-02-21T18:16:29;12.70;90.50
74155;DHT22;62509;46.248;6.018;2024-02-21T18:21:32;12.70;90.40
74155;DHT22;62509;46.248;6.018;2024-02-21T18:26:38;12.70;90.40
74155;DHT22;62509;46.248;6.018;2024-02-21T18:31:41;12.70;90.40
74155;DHT22;62509;46.248;6.018;2024-02-21T18:36:45;12.60;90.30
74155;DHT22;62509;46.248;6.018;2024-02-21T18:41:50;12.60;90.30
74155;DHT22;62509;46.248;6.018;2024-02-21T18:46:54;12.60;90.30
74155;DHT22;62509;46.248;6.018;2024-02-21T18:51:58;12.60;90.30
74155;DHT22;62509;46.248;6.018;2024-02-21T18:57:04;12.60;90.20
74155;DHT22;62509;46.248;6.018;2024-02-21T19:02:07;12.70;90.20
74155;DHT22;62509;46.248;6.018;2024-02-21T19:07:11;12.70;90.20
74155;DHT22;62509;46.248;6.018;2024-02-21T19:12:16;12.80;90.10
74155;DHT22;62509;46.248;6.018;2024-02-21T19:17:20;12.80;90.10
74155;DHT22;62509;46.248;6.018;2024-02-21T19:22:23;12.80;90.10
74155;DHT22;62509;46.248;6.018;2024-02-21T19:27:32;12.80;90.00
74155;DHT22;62509;46.248;6.018;2024-02-21T19:32:35;12.80;90.00
74155;DHT22;62509;46.248;6.018;2024-02-21T19:37:39;12.80;90.00
74155;DHT22;62509;46.248;6.018;2024-02-21T19:42:43;12.80;90.20
74155;DHT22;62509;46.248;6.018;2024-02-21T19:47:47;12.80;90.00
74155;DHT22;62509;46.248;6.018;2024-02-21T19:52:50;12.80;90.00
74155;DHT22;62509;46.248;6.018;2024-02-21T19:57:55;12.70;89.90
74155;DHT22;62509;46.248;6.018;2024-02-21T20:02:59;12.80;90.00
74155;DHT22;62509;46.248;6.018;2024-02-21T20:08:05;12.80;90.00
74155;DHT22;62509;46.248;6.018;2024-02-21T20:13:10;12.80;89.90
74155;DHT22;62509;46.248;6.018;2024-02-21T20:18:14;12.80;89.80
74155;DHT22;62509;46.248;6.018;2024-02-21T20:23:19;12.80;89.80
74155;DHT22;62509;46.248;6.018;2024-02-21T20:28:24;12.80;89.70
74155;DHT22;62509;46.248;6.018;2024-02-21T20:33:27;12.80;89.70
74155;DHT22;62509;46.248;6.018;2024-02-21T20:38:31;12.80;89.70
74155;DHT22;62509;46.248;6.018;2024-02-21T20:43:35;12.80;89.70
74155;DHT22;62509;46.248;6.018;2024-02-21T20:48:38;12.80;89.60
74155;DHT22;62509;46.248;6.018;2024-02-21T20:53:41;12.80;89.60
74155;DHT22;62509;46.248;6.018;2024-02-21T20:58:46;12.80;89.50
74155;DHT22;62509;46.248;6.018;2024-02-21T21:03:50;12.80;89.40
74155;DHT22;62509;46.248;6.018;2024-02-21T21:08:53;12.70;89.40
74155;DHT22;62509;46.248;6.018;2024-02-21T21:13:58;12.80;89.50
74155;DHT22;62509;46.248;6.018;2024-02-21T21:19:01;12.70;89.40
74155;DHT22;62509;46.248;6.018;2024-02-21T21:24:05;12.70;89.30
74155;DHT22;62509;46.248;6.018;2024-02-21T21:29:10;12.70;89.30
74155;DHT22;62509;46.248;6.018;2024-02-21T21:34:14;12.70;89.80
74155;DHT22;62509;46.248;6.018;2024-02-21T21:39:18;12.70;89.10
74155;DHT22;62509;46.248;6.018;2024-02-21T21:44:22;12.80;89.10
74155;DHT22;62509;46.248;6.018;2024-02-21T21:49:26;12.80;89.00
74155;DHT22;62509;46.248;6.018;2024-02-21T21:54:30;12.80;88.90
74155;DHT22;62509;46.248;6.018;2024-02-21T21:59:35;12.80;88.80
74155;DHT22;62509;46.248;6.018;2024-02-21T22:04:38;12.80;88.80
74155;DHT22;62509;46.248;6.018;2024-02-21T22:09:41;12.80;88.70
74155;DHT22;62509;46.248;6.018;2024-02-21T22:14:46;12.70;88.70
74155;DHT22;62509;46.248;6.018;2024-02-21T22:19:49;12.80;88.70
74155;DHT22;62509;46.248;6.018;2024-02-21T22:24:52;12.80;88.60
74155;DHT22;62509;46.248;6.018;2024-02-21T22:29:57;12.80;88.50
74155;DHT22;62509;46.248;6.018;2024-02-21T22:35:00;12.80;88.40
74155;DHT22;62509;46.248;6.018;2024-02-21T22:40:05;12.80;88.40
74155;DHT22;62509;46.248;6.018;2024-02-21T22:45:11;12.90;88.40
74155;DHT22;62509;46.248;6.018;2024-02-21T22:50:16;12.90;88.20
74155;DHT22;62509;46.248;6.018;2024-02-21T22:55:20;12.90;88.20
74155;DHT22;62509;46.248;6.018;2024-02-21T23:00:24;12.90;88.10
74155;DHT22;62509;46.248;6.018;2024-02-21T23:05:28;12.90;88.10
74155;DHT22;62509;46.248;6.018;2024-02-21T23:10:31;12.90;88.00
74155;DHT22;62509;46.248;6.018;2024-02-21T23:15:37;12.90;87.90
74155;DHT22;62509;46.248;6.018;2024-02-21T23:20:40;13.00;87.90
74155;DHT22;62509;46.248;6.018;2024-02-21T23:25:45;12.90;87.80
74155;DHT22;62509;46.248;6.018;2024-02-21T23:30:49;13.00;87.80
74155;DHT22;62509;46.248;6.018;2024-02-21T23:35:53;13.00;87.80
74155;DHT22;62509;46.248;6.018;2024-02-21T23:40:56;12.90;87.70
74155;DHT22;62509;46.248;6.018;2024-02-21T23:46:01;12.90;87.70
74155;DHT22;62509;46.248;6.018;2024-02-21T23:51:05;12.90;87.70
74155;DHT22;62509;46.248;6.018;2024-02-21T23:56:08;12.90;87.60
